Time;durP1;ratioP1;P1;durP2;ratioP2;P2;SDS_P1;SDS_P2;PMS_P1;PMS_P2;Temp;Humidity;BMP_temperature;BMP_pressure;BME280_temperature;BME280_humidity;BME280_pressure;Samples;Min_cycle;Max_cycle;Signal;HPM_P1;HPM_P2
2021/08/10 00:00:56;;;;;;;8.18;4.05;;;;;;;18.26;73.29;93269.50;2070844;69;20533;-73
2021/08/10 00:03:22;;;;;;;9.00;3.90;;;;;;;18.29;72.09;93268.97;2067512;69;20156;-73
2021/08/10 00:05:48;;;;;;;8.10;3.67;;;;;;;18.32;71.82;93269.75;2067909;69;20514;-72
2021/08/10 00:08:17;;;;;;;7.20;3.72;;;;;;;18.23;72.25;93265.84;2070723;69;20694;-73
2021/08/10 00:10:44;;;;;;;7.00;3.83;;;;;;;18.20;71.81;93266.44;2071169;69;20227;-73
2021/08/10 00:13:13;;;;;;;8.05;3.72;;;;;;;18.26;71.52;93261.69;2071327;69;20156;-73
2021/08/10 00:15:39;;;;;;;5.93;3.53;;;;;;;18.15;72.47;93270.50;2071200;69;20163;-73
2021/08/10 00:18:05;;;;;;;6.80;3.65;;;;;;;18.01;72.32;93279.91;2071485;69;20214;-72
2021/08/10 00:20:31;;;;;;;6.72;3.55;;;;;;;17.71;73.84;93270.00;2071147;69;20637;-72
2021/08/10 00:22:57;;;;;;;5.57;3.40;;;;;;;17.78;73.17;93266.81;2070822;69;20156;-72
2021/08/10 00:25:23;;;;;;;5.78;3.40;;;;;;;17.77;73.44;93262.50;2071089;69;20155;-73
2021/08/10 00:27:49;;;;;;;7.30;3.70;;;;;;;17.83;72.79;93267.72;2071416;69;20137;-73
2021/08/10 00:30:14;;;;;;;6.20;3.22;;;;;;;17.81;73.07;93275.44;2070867;69;20187;-72
2021/08/10 00:32:40;;;;;;;5.22;3.03;;;;;;;17.90;72.01;93263.03;2070919;69;20521;-73
2021/08/10 00:35:07;;;;;;;6.55;3.33;;;;;;;17.97;71.28;93267.59;2071230;69;20137;-73
2021/08/10 00:37:33;;;;;;;7.03;4.20;;;;;;;17.86;71.46;93260.00;2071340;69;20251;-72
2021/08/10 00:39:58;;;;;;;7.43;3.70;;;;;;;17.60;72.89;93256.72;2070920;69;20491;-73
2021/08/10 00:42:25;;;;;;;6.03;3.35;;;;;;;17.61;72.47;93261.78;2067784;69;20133;-72
2021/08/10 00:44:51;;;;;;;4.32;3.35;;;;;;;17.62;72.16;93257.53;2067996;69;20154;-72
2021/08/10 00:47:17;;;;;;;7.10;3.60;;;;;;;17.71;71.56;93264.31;2067522;69;20148;-72
2021/08/10 00:49:43;;;;;;;5.32;3.58;;;;;;;17.50;72.99;93254.91;2067449;69;20237;-72
2021/08/10 00:52:10;;;;;;;7.00;3.40;;;;;;;17.47;72.88;93261.88;2067835;69;20187;-74
2021/08/10 00:54:37;;;;;;;9.57;3.53;;;;;;;17.51;72.69;93262.06;2067562;69;20214;-74
2021/08/10 00:57:04;;;;;;;10.40;3.95;;;;;;;17.52;72.46;93268.50;2067648;69;20144;-74
2021/08/10 00:59:35;;;;;;;4.72;3.75;;;;;;;17.49;72.98;93256.28;2067608;69;20156;-71
2021/08/10 01:02:03;;;;;;;8.05;3.97;;;;;;;17.51;72.93;93261.34;2067370;69;20586;-74
2021/08/10 01:04:29;;;;;;;7.25;3.58;;;;;;;17.48;72.76;93251.97;2067759;69;20148;-74
2021/08/10 01:07:18;;;;;;;6.18;3.45;;;;;;;17.43;73.11;93249.59;2067766;69;20215;-74
2021/08/10 01:09:58;;;;;;;6.88;3.45;;;;;;;17.47;72.22;93244.81;2067341;69;20148;-74
2021/08/10 01:12:47;;;;;;;7.95;3.80;;;;;;;17.34;73.57;93248.50;2067664;69;20155;-73
2021/08/10 01:15:13;;;;;;;7.88;4.00;;;;;;;17.28;73.63;93237.56;2064566;69;20247;-73
2021/08/10 01:18:13;;;;;;;7.28;3.88;;;;;;;17.21;72.54;93241.50;2067447;69;20247;-73
2021/08/10 01:20:54;;;;;;;5.80;3.75;;;;;;;17.25;72.55;93243.81;2053795;70;20557;-73
2021/08/10 01:23:26;;;;;;;8.07;4.15;;;;;;;17.25;72.61;93243.81;2050660;70;20245;-73
2021/08/10 01:26:17;;;;;;;6.50;3.67;;;;;;;17.19;72.60;93238.59;2050959;70;20157;-74
2021/08/10 01:29:04;;;;;;;9.10;3.42;;;;;;;17.23;71.87;93246.59;2052105;69;20182;-74
2021/08/10 01:31:34;;;;;;;6.68;3.95;;;;;;;17.01;73.92;93252.72;2050299;70;20138;-75
2021/08/10 01:34:12;;;;;;;6.05;4.00;;;;;;;17.17;72.36;93246.28;2053046;70;20309;-74
2021/08/10 01:36:41;;;;;;;9.85;3.67;;;;;;;17.02;73.15;93250.59;2051129;70;20185;-75
2021/08/10 01:39:08;;;;;;;10.60;3.92;;;;;;;16.99;73.47;93251.88;2050206;70;20150;-73
2021/08/10 01:41:41;;;;;;;7.50;3.90;;;;;;;17.06;72.63;93247.22;2050758;70;20177;-74
2021/08/10 01:44:09;;;;;;;6.18;3.50;;;;;;;17.05;73.14;93255.03;2051270;70;20252;-74
2021/08/10 01:46:36;;;;;;;7.80;3.75;;;;;;;17.15;72.33;93246.22;2051195;70;20153;-74
2021/08/10 01:49:04;;;;;;;9.10;3.78;;;;;;;17.13;72.59;93237.56;2048697;70;20157;-73
2021/08/10 01:51:31;;;;;;;4.25;3.78;;;;;;;17.13;73.18;93249.69;2048007;70;20185;-74
2021/08/10 01:54:01;;;;;;;8.43;4.72;;;;;;;16.39;76.32;93251.19;2046135;70;20586;-74
2021/08/10 01:56:30;;;;;;;6.93;4.72;;;;;;;16.60;74.90;93244.38;2054322;69;20172;-74
2021/08/10 01:59:01;;;;;;;7.75;4.50;;;;;;;16.84;73.51;93249.75;2068065;69;20153;-74
2021/08/10 02:01:29;;;;;;;7.20;4.13;;;;;;;16.85;73.74;93240.59;2071178;69;20525;-74
2021/08/10 02:03:56;;;;;;;10.63;3.88;;;;;;;16.85;73.16;93242.69;2067688;69;20137;-74
2021/08/10 02:06:22;;;;;;;12.25;4.25;;;;;;;16.90;73.74;93238.66;2068177;69;20579;-74
2021/08/10 02:08:52;;;;;;;7.70;4.90;;;;;;;17.12;72.11;93245.38;2067441;69;20243;-74
2021/08/10 02:11:24;;;;;;;7.03;4.03;;;;;;;17.07;72.05;93238.03;2068136;69;20151;-74
2021/08/10 02:13:54;;;;;;;7.43;5.00;;;;;;;17.09;72.27;93238.13;2067901;69;20168;-74
2021/08/10 02:16:23;;;;;;;7.35;4.90;;;;;;;16.91;72.36;93234.47;2068142;69;20144;-74
2021/08/10 02:18:50;;;;;;;8.25;4.53;;;;;;;16.64;75.37;93238.91;2065075;69;20151;-74
2021/08/10 02:21:35;;;;;;;5.78;4.47;;;;;;;16.77;75.13;93237.38;2062859;69;20156;-73
2021/08/10 02:24:11;;;;;;;5.72;4.35;;;;;;;16.93;74.49;93234.53;2067972;69;20145;-74
2021/08/10 02:26:51;;;;;;;5.97;4.20;;;;;;;17.10;72.45;93224.66;2068655;69;20160;-74
2021/08/10 02:29:19;;;;;;;6.50;4.07;;;;;;;16.97;74.59;93224.09;2068456;69;20151;-73
2021/08/10 02:31:45;;;;;;;10.00;4.90;;;;;;;17.06;73.68;93235.84;2068577;69;20160;-74
2021/08/10 02:34:16;;;;;;;7.20;3.78;;;;;;;17.09;73.15;93223.91;2068104;69;20628;-73
2021/08/10 02:36:43;;;;;;;8.48;4.60;;;;;;;17.01;73.88;93223.53;2068459;69;20233;-73
2021/08/10 02:39:10;;;;;;;8.25;4.43;;;;;;;17.09;72.51;93223.91;2068519;69;20147;-74
2021/08/10 02:41:40;;;;;;;8.30;4.07;;;;;;;17.29;71.78;93224.06;2068608;69;20144;-74
2021/08/10 02:44:08;;;;;;;7.70;3.83;;;;;;;17.28;73.15;93216.94;2068439;69;20140;-74
2021/08/10 02:46:34;;;;;;;8.25;4.22;;;;;;;17.34;71.81;93225.00;2068639;69;20231;-74
2021/08/10 02:49:01;;;;;;;7.50;4.40;;;;;;;17.26;72.78;93225.34;2068325;69;20138;-73
2021/08/10 02:51:27;;;;;;;11.80;4.72;;;;;;;17.36;72.97;93225.81;2068480;69;20615;-73
2021/08/10 02:53:53;;;;;;;5.65;3.60;;;;;;;17.40;73.25;93225.25;2068324;69;20155;-74
2021/08/10 02:56:23;;;;;;;5.72;3.90;;;;;;;17.38;73.84;93223.06;2068647;69;20215;-74
2021/08/10 02:59:10;;;;;;;6.28;3.85;;;;;;;17.53;69.70;93218.72;2072028;69;20259;-74
2021/08/10 03:01:41;;;;;;;7.18;4.15;;;;;;;17.41;74.11;93218.16;2067057;69;20227;-74
2021/08/10 03:04:09;;;;;;;7.93;4.07;;;;;;;17.39;73.31;93220.94;2068284;69;20188;-75
2021/08/10 03:06:35;;;;;;;6.03;4.07;;;;;;;17.46;72.00;93225.53;2068178;69;20606;-74
2021/08/10 03:09:03;;;;;;;6.95;4.20;;;;;;;17.44;73.22;93228.28;2068280;69;20156;-74
2021/08/10 03:11:39;;;;;;;6.95;4.15;;;;;;;17.44;74.39;93225.44;2068372;69;20188;-73
2021/08/10 03:14:12;;;;;;;6.78;4.30;;;;;;;17.38;73.63;93223.06;2068351;69;20144;-73
2021/08/10 03:16:40;;;;;;;8.73;3.90;;;;;;;17.52;72.42;93220.81;2068517;69;20153;-74
2021/08/10 03:19:09;;;;;;;7.18;3.90;;;;;;;17.45;72.55;93227.63;2068451;69;20776;-74
2021/08/10 03:21:37;;;;;;;7.03;4.25;;;;;;;17.49;72.07;93224.97;2071677;69;20605;-74
2021/08/10 03:24:06;;;;;;;5.30;3.65;;;;;;;17.57;70.95;93227.44;2068584;69;20560;-74
2021/08/10 03:26:34;;;;;;;6.53;3.90;;;;;;;17.50;71.46;93220.75;2068203;69;20152;-73
2021/08/10 03:29:04;;;;;;;6.65;3.92;;;;;;;17.47;72.39;93219.19;2068434;69;20140;-72
2021/08/10 03:31:31;;;;;;;7.88;4.05;;;;;;;17.37;72.52;93221.59;2068409;69;20180;-74
2021/08/10 03:33:59;;;;;;;4.95;3.92;;;;;;;17.38;73.03;93228.75;2067917;69;20609;-74
2021/08/10 03:36:25;;;;;;;7.57;4.03;;;;;;;17.49;71.98;93229.91;2068249;69;20149;-74
2021/08/10 03:38:55;;;;;;;5.13;4.10;;;;;;;17.54;71.77;93223.75;2067896;69;20136;-74
2021/08/10 03:41:26;;;;;;;5.97;4.00;;;;;;;17.24;73.39;93237.38;2068030;69;20579;-74
2021/08/10 03:43:53;;;;;;;9.32;4.40;;;;;;;17.31;74.07;93231.97;2068289;69;20236;-74
2021/08/10 03:46:20;;;;;;;9.95;3.88;;;;;;;17.24;72.36;93233.81;2071481;69;20594;-73
2021/08/10 03:48:49;;;;;;;9.55;4.05;;;;;;;17.40;72.13;93242.31;2068190;69;20152;-74
2021/08/10 03:51:16;;;;;;;8.80;3.95;;;;;;;17.36;71.93;93234.34;2068231;69;20149;-75
2021/08/10 03:53:43;;;;;;;9.00;4.30;;;;;;;17.56;69.54;93233.78;2067536;69;20608;-75
2021/08/10 03:56:10;;;;;;;5.68;4.10;;;;;;;17.40;72.21;93234.53;2067684;69;20257;-74
2021/08/10 03:58:43;;;;;;;8.77;4.55;;;;;;;17.35;73.50;93235.00;2065416;69;20614;-74
2021/08/10 04:01:12;;;;;;;5.82;4.03;;;;;;;17.47;71.79;93241.97;2067530;69;20573;-74
2021/08/10 04:03:43;;;;;;;6.28;4.60;;;;;;;17.27;73.16;93238.19;2067306;69;20782;-74
2021/08/10 04:06:11;;;;;;;10.07;4.40;;;;;;;17.32;72.16;93239.88;2067545;69;20156;-74
2021/08/10 04:08:38;;;;;;;6.30;4.13;;;;;;;17.20;72.99;93239.31;2067843;69;20206;-75
2021/08/10 04:11:05;;;;;;;6.00;4.00;;;;;;;17.38;72.72;93240.13;2067888;69;20236;-74
2021/08/10 04:13:32;;;;;;;6.25;4.40;;;;;;;17.35;73.10;93246.38;2068468;69;20497;-74
2021/08/10 04:16:01;;;;;;;9.05;4.60;;;;;;;17.36;73.70;93245.00;2067703;69;20171;-74
2021/08/10 04:18:29;;;;;;;6.80;4.57;;;;;;;17.29;73.29;93235.47;2067797;69;20484;-74
2021/08/10 04:20:55;;;;;;;7.85;4.60;;;;;;;17.14;73.72;93241.91;2067854;69;20145;-75
2021/08/10 04:23:22;;;;;;;7.95;4.32;;;;;;;17.34;71.52;93239.94;2067861;69;20525;-74
2021/08/10 04:25:48;;;;;;;6.55;4.38;;;;;;;17.30;72.04;93236.94;2067855;69;20144;-75
2021/08/10 04:28:15;;;;;;;6.50;4.45;;;;;;;17.28;71.04;93240.41;2068430;69;20213;-75
2021/08/10 04:30:42;;;;;;;9.45;5.15;;;;;;;17.32;70.82;93237.03;2068445;69;20168;-75
2021/08/10 04:33:09;;;;;;;6.82;4.40;;;;;;;17.32;71.97;93234.19;2067717;69;20148;-75
2021/08/10 04:35:35;;;;;;;7.03;4.25;;;;;;;17.17;72.89;93235.63;2068395;69;20144;-75
2021/08/10 04:38:02;;;;;;;6.20;4.03;;;;;;;17.35;70.93;93232.88;2067869;69;20152;-74
2021/08/10 04:40:29;;;;;;;8.35;4.22;;;;;;;17.35;71.63;93240.69;2067859;69;20635;-74
2021/08/10 04:43:17;;;;;;;8.15;4.50;;;;;;;17.15;73.49;93238.41;2064828;69;20147;-74
2021/08/10 04:45:47;;;;;;;8.60;4.28;;;;;;;17.23;72.25;93241.63;2067859;69;20153;-74
2021/08/10 04:48:13;;;;;;;8.27;4.90;;;;;;;16.98;74.40;93242.63;2067523;69;20232;-74
2021/08/10 04:50:39;;;;;;;8.73;4.60;;;;;;;17.09;73.08;93246.69;2067681;69;20588;-75
2021/08/10 04:53:06;;;;;;;6.25;4.07;;;;;;;17.44;70.39;93246.09;2067640;69;20606;-75
2021/08/10 04:55:31;;;;;;;8.48;4.53;;;;;;;17.30;73.23;93245.47;2067719;69;20160;-74
2021/08/10 04:57:57;;;;;;;8.32;4.70;;;;;;;17.48;72.72;93245.53;2067699;69;20507;-75
2021/08/10 05:00:24;;;;;;;7.07;5.20;;;;;;;17.41;71.18;93253.09;2067773;69;20143;-75
2021/08/10 05:02:50;;;;;;;5.78;4.50;;;;;;;17.28;71.48;93239.69;2067565;69;20215;-75
2021/08/10 05:05:16;;;;;;;8.88;4.32;;;;;;;17.37;71.48;93249.31;2067710;69;20151;-75
2021/08/10 05:07:44;;;;;;;6.38;4.30;;;;;;;17.31;70.99;93246.19;2068328;69;20124;-75
2021/08/10 05:10:13;;;;;;;6.38;4.78;;;;;;;17.16;71.55;93245.56;2067709;69;20152;-74
2021/08/10 05:12:39;;;;;;;7.65;4.43;;;;;;;17.39;71.51;93240.88;2067674;69;20132;-74
2021/08/10 05:15:08;;;;;;;6.78;4.38;;;;;;;17.32;71.25;93239.88;2067711;69;20152;-74
2021/08/10 05:17:34;;;;;;;7.75;4.50;;;;;;;17.40;70.87;93245.91;2067662;69;20141;-74
2021/08/10 05:20:00;;;;;;;6.65;4.60;;;;;;;17.52;69.43;93254.25;2067785;69;20186;-74
2021/08/10 05:22:26;;;;;;;6.00;4.28;;;;;;;17.51;71.33;93250.69;2067728;69;20152;-74
2021/08/10 05:24:53;;;;;;;5.90;4.53;;;;;;;17.48;70.64;93243.41;2067735;69;20542;-74
2021/08/10 05:27:19;;;;;;;5.65;4.28;;;;;;;17.57;69.35;93243.78;2067730;69;20141;-74
2021/08/10 05:29:45;;;;;;;7.35;4.30;;;;;;;17.58;70.31;93248.81;2068313;69;20194;-74
2021/08/10 05:32:11;;;;;;;7.78;4.38;;;;;;;17.57;69.21;93238.81;2068265;69;20589;-75
2021/08/10 05:34:38;;;;;;;5.85;4.50;;;;;;;17.60;69.71;93248.19;2067641;69;20159;-74
2021/08/10 05:37:05;;;;;;;6.45;4.53;;;;;;;17.67;68.51;93249.91;2067648;69;20136;-74
2021/08/10 05:39:33;;;;;;;9.20;4.60;;;;;;;17.47;72.88;93241.22;2067702;69;20152;-75
2021/08/10 05:41:58;;;;;;;8.60;4.65;;;;;;;17.57;70.89;93247.34;2067663;69;20156;-74
2021/08/10 05:44:24;;;;;;;7.30;4.55;;;;;;;17.60;69.87;93246.06;2067631;69;20136;-75
2021/08/10 05:46:50;;;;;;;10.73;4.85;;;;;;;17.63;69.87;93244.03;2067624;69;20149;-75
2021/08/10 05:49:19;;;;;;;8.20;4.80;;;;;;;17.51;70.93;93242.13;2067489;69;20153;-75
2021/08/10 05:51:44;;;;;;;8.20;4.60;;;;;;;17.62;71.10;93236.88;2068118;69;20595;-76
2021/08/10 05:54:13;;;;;;;6.38;4.65;;;;;;;17.63;69.41;93244.75;2067479;69;20587;-76
2021/08/10 05:56:43;;;;;;;8.60;4.82;;;;;;;17.68;69.05;93232.16;2067663;69;20159;-76
2021/08/10 05:59:09;;;;;;;8.70;4.70;;;;;;;17.58;69.89;93236.69;2067481;69;20148;-76
2021/08/10 06:01:37;;;;;;;7.45;4.50;;;;;;;17.61;71.07;93236.16;2068032;69;20231;-76
2021/08/10 06:04:04;;;;;;;9.02;4.70;;;;;;;17.52;71.04;93234.34;2067962;69;20160;-76
2021/08/10 06:06:29;;;;;;;6.05;4.15;;;;;;;17.59;69.92;93229.63;2068072;69;20202;-75
2021/08/10 06:08:56;;;;;;;7.75;4.60;;;;;;;17.65;70.41;93233.47;2068086;69;20238;-76
2021/08/10 06:11:22;;;;;;;12.98;4.28;;;;;;;17.72;69.87;93238.03;2068061;69;20152;-75
2021/08/10 06:13:48;;;;;;;7.65;4.55;;;;;;;17.61;71.81;93236.16;2068118;69;20156;-75
2021/08/10 06:16:13;;;;;;;8.55;4.68;;;;;;;17.73;70.13;93228.16;2068067;69;20175;-75
2021/08/10 06:18:39;;;;;;;6.97;4.40;;;;;;;17.82;68.31;93225.66;2068005;69;20175;-76
2021/08/10 06:21:13;;;;;;;10.43;4.63;;;;;;;17.90;66.83;93220.28;2068118;69;20157;-75
2021/08/10 06:23:39;;;;;;;7.70;4.32;;;;;;;17.80;68.66;93217.75;2068107;69;20588;-75
2021/08/10 06:26:05;;;;;;;8.13;4.22;;;;;;;17.74;68.59;93215.38;2068089;69;20143;-77
2021/08/10 06:28:31;;;;;;;10.75;4.43;;;;;;;17.90;68.12;93211.75;2068104;69;20221;-76
2021/08/10 06:31:00;;;;;;;7.00;4.60;;;;;;;17.92;68.76;93204.03;2068653;69;20140;-75
2021/08/10 06:33:25;;;;;;;5.78;4.45;;;;;;;17.86;70.09;93215.16;2067948;69;20185;-76
2021/08/10 06:35:52;;;;;;;6.30;4.93;;;;;;;17.44;70.96;93208.34;2068031;69;20158;-76
2021/08/10 06:38:18;;;;;;;6.82;4.38;;;;;;;17.82;69.14;93200.00;2068595;69;20137;-76
2021/08/10 06:40:43;;;;;;;8.65;4.90;;;;;;;17.66;69.62;93212.16;2068603;69;20203;-76
2021/08/10 06:43:09;;;;;;;9.32;4.32;;;;;;;18.02;68.56;93203.72;2067985;69;20503;-75
2021/08/10 06:45:37;;;;;;;8.50;4.68;;;;;;;18.39;67.90;93203.06;2068581;69;20156;-76
2021/08/10 06:48:03;;;;;;;15.88;5.00;;;;;;;17.97;71.81;93202.09;2067912;69;20140;-75
2021/08/10 06:50:35;;;;;;;7.15;5.03;;;;;;;17.63;72.06;93207.75;2067993;69;20210;-75
2021/08/10 06:53:01;;;;;;;8.50;4.97;;;;;;;17.81;71.93;93202.13;2067850;69;20172;-76
2021/08/10 06:55:29;;;;;;;9.90;5.20;;;;;;;17.46;73.75;93199.91;2067971;69;20231;-75
2021/08/10 06:57:56;;;;;;;7.90;5.30;;;;;;;17.83;72.24;93190.09;2067956;69;20152;-75
2021/08/10 07:00:26;;;;;;;7.38;4.50;;;;;;;17.83;72.07;93190.09;2068046;69;20595;-75
2021/08/10 07:02:51;;;;;;;8.43;4.57;;;;;;;18.09;71.03;93182.63;2067912;69;20637;-76
2021/08/10 07:05:19;;;;;;;7.90;4.57;;;;;;;18.27;70.10;93186.22;2067993;69;20149;-75
2021/08/10 07:07:46;;;;;;;8.32;4.80;;;;;;;18.40;71.14;93193.13;2067980;69;20157;-76
2021/08/10 07:10:13;;;;;;;8.45;4.72;;;;;;;18.88;69.78;93187.16;2067959;69;20140;-77
2021/08/10 07:12:38;;;;;;;7.63;4.10;;;;;;;18.87;69.79;93194.97;2067758;69;20209;-77
2021/08/10 07:15:05;;;;;;;8.60;4.85;;;;;;;18.61;68.21;93191.81;2068560;69;20145;-77
2021/08/10 07:17:31;;;;;;;9.65;4.72;;;;;;;18.91;68.02;93191.53;2065036;69;20198;-77
2021/08/10 07:19:58;;;;;;;7.93;4.70;;;;;;;18.91;67.97;93192.28;2067975;69;20203;-77
2021/08/10 07:22:25;;;;;;;9.70;4.55;;;;;;;18.97;67.47;93192.50;2067904;69;20144;-78
2021/08/10 07:24:51;;;;;;;7.32;4.82;;;;;;;19.37;65.88;93189.66;2067932;69;20164;-78
2021/08/10 07:27:18;;;;;;;6.82;4.75;;;;;;;19.60;66.21;93184.75;2067976;69;20144;-78
2021/08/10 07:29:44;;;;;;;6.18;4.30;;;;;;;19.55;66.88;93186.72;2067968;69;20187;-78
2021/08/10 07:32:10;;;;;;;7.65;4.50;;;;;;;19.63;65.76;93189.19;2068444;69;20140;-77
2021/08/10 07:34:37;;;;;;;6.35;4.50;;;;;;;19.69;65.21;93172.25;2067934;69;20175;-77
2021/08/10 07:37:02;;;;;;;7.60;4.63;;;;;;;19.72;65.26;93180.22;2065120;69;20212;-78
2021/08/10 07:39:29;;;;;;;7.80;4.40;;;;;;;19.90;64.42;93177.25;2067990;69;20149;-77
2021/08/10 07:41:56;;;;;;;8.23;4.43;;;;;;;20.33;64.73;93180.78;2067972;69;20236;-78
2021/08/10 07:44:22;;;;;;;5.78;4.40;;;;;;;20.39;63.81;93176.00;2067928;69;20143;-78
2021/08/10 07:46:49;;;;;;;6.38;4.40;;;;;;;20.54;63.29;93169.34;2067963;69;20603;-78
2021/08/10 07:49:21;;;;;;;7.97;4.40;;;;;;;20.94;61.09;93166.28;2068446;69;20149;-78
2021/08/10 07:51:47;;;;;;;6.88;4.30;;;;;;;21.01;60.01;93165.03;2067917;69;20618;-78
2021/08/10 07:54:13;;;;;;;6.82;4.10;;;;;;;20.93;59.59;93172.66;2067950;69;20184;-78
2021/08/10 07:56:38;;;;;;;13.65;4.57;;;;;;;20.78;61.48;93160.06;2067859;69;20143;-78
2021/08/10 07:59:05;;;;;;;7.82;4.50;;;;;;;21.16;59.80;93159.72;2067941;69;20153;-78
2021/08/10 08:01:30;;;;;;;5.43;4.03;;;;;;;21.00;59.01;93160.00;2067852;69;20160;-77
2021/08/10 08:03:56;;;;;;;6.65;4.20;;;;;;;21.27;59.98;93164.34;2067841;69;20662;-77
2021/08/10 08:06:22;;;;;;;4.55;3.80;;;;;;;21.36;59.78;93165.34;2067927;69;20515;-81
2021/08/10 08:08:49;;;;;;;6.03;4.07;;;;;;;21.64;60.57;93166.13;2068008;69;20144;-78
2021/08/10 08:11:17;;;;;;;5.28;4.05;;;;;;;21.93;61.59;93166.88;2067926;69;20147;-77
2021/08/10 08:13:43;;;;;;;5.50;3.97;;;;;;;22.14;61.39;93165.28;2067903;69;20140;-78
2021/08/10 08:16:09;;;;;;;8.10;4.30;;;;;;;22.16;56.67;93163.19;2067857;69;20599;-78
2021/08/10 08:18:34;;;;;;;7.05;4.22;;;;;;;22.49;57.62;93163.97;2067763;69;20179;-77
2021/08/10 08:21:01;;;;;;;5.63;4.10;;;;;;;22.57;56.54;93159.16;2067844;69;20252;-77
2021/08/10 08:23:32;;;;;;;6.25;4.40;;;;;;;22.07;56.15;93155.75;2067846;69;20145;-80
2021/08/10 08:26:02;;;;;;;7.32;4.10;;;;;;;21.82;57.27;93155.16;2067848;69;20141;-77
2021/08/10 08:28:30;;;;;;;5.45;3.97;;;;;;;22.27;55.53;93153.44;2068450;69;20148;-77
2021/08/10 08:30:56;;;;;;;5.78;4.05;;;;;;;22.68;56.59;93145.78;2067840;69;20152;-77
2021/08/10 08:33:22;;;;;;;5.75;4.30;;;;;;;23.02;56.89;93142.97;2067723;69;20148;-76
2021/08/10 08:35:48;;;;;;;7.95;4.32;;;;;;;23.17;55.60;93138.25;2065050;69;20179;-77
2021/08/10 08:38:15;;;;;;;4.43;3.88;;;;;;;23.05;53.33;93135.88;2067895;69;20187;-76
2021/08/10 08:40:44;;;;;;;5.07;3.95;;;;;;;23.24;55.35;93136.97;2067872;69;20267;-77
2021/08/10 08:43:11;;;;;;;5.38;4.10;;;;;;;23.25;53.13;93134.81;2067851;69;20155;-77
2021/08/10 08:45:41;;;;;;;5.93;4.03;;;;;;;23.78;55.44;93130.88;2067865;69;20202;-79
2021/08/10 08:48:11;;;;;;;6.18;3.80;;;;;;;24.37;54.69;93127.56;2067744;69;20530;-78
2021/08/10 08:50:37;;;;;;;5.72;4.10;;;;;;;24.25;54.06;93122.31;2067862;69;20504;-80
2021/08/10 08:53:05;;;;;;;4.53;4.00;;;;;;;24.24;52.63;93118.72;2067724;69;20629;-76
2021/08/10 08:55:33;;;;;;;6.63;4.28;;;;;;;24.29;53.16;93117.34;2067799;69;20211;-78
2021/08/10 08:57:59;;;;;;;6.22;4.03;;;;;;;24.84;51.92;93126.84;2067836;69;20148;-77
2021/08/10 09:00:25;;;;;;;5.53;3.95;;;;;;;25.12;50.28;93125.09;2067826;69;20143;-78
2021/08/10 09:02:52;;;;;;;5.70;4.22;;;;;;;24.42;50.97;93123.31;2067664;69;20598;-77
2021/08/10 09:05:17;;;;;;;5.30;4.22;;;;;;;25.27;52.09;93129.59;2067809;69;20141;-76
2021/08/10 09:07:45;;;;;;;5.78;4.15;;;;;;;25.29;51.44;93115.97;2067803;69;20239;-79
2021/08/10 09:10:12;;;;;;;5.18;3.90;;;;;;;25.44;50.63;93105.31;2068602;69;20194;-77
2021/08/10 09:12:54;;;;;;;6.82;4.15;;;;;;;25.84;49.90;93102.19;2067208;69;20156;-79
2021/08/10 09:15:37;;;;;;;6.28;4.10;;;;;;;25.42;48.26;93110.31;2067524;69;20527;-76
2021/08/10 09:18:11;;;;;;;5.65;4.07;;;;;;;26.02;48.51;93100.88;2067648;69;20182;-78
2021/08/10 09:21:05;;;;;;;8.90;4.30;;;;;;;25.61;47.93;93097.56;2067648;69;20234;-77
2021/08/10 09:23:55;;;;;;;5.78;4.20;;;;;;;25.76;47.13;93095.59;2067648;69;20609;-77
2021/08/10 09:26:37;;;;;;;6.47;4.10;;;;;;;25.90;46.30;93100.78;2067734;69;20181;-77
2021/08/10 09:29:06;;;;;;;4.93;3.58;;;;;;;26.26;47.01;93092.47;2067823;69;20159;-80
2021/08/10 09:31:33;;;;;;;5.85;3.58;;;;;;;26.53;46.79;93090.53;2067750;69;20210;-77
2021/08/10 09:34:08;;;;;;;5.88;3.85;;;;;;;26.57;43.41;93089.81;2067543;69;20145;-78
2021/08/10 09:36:34;;;;;;;4.05;3.53;;;;;;;25.77;43.86;93083.34;2068010;69;20152;-79
2021/08/10 09:39:02;;;;;;;7.28;3.97;;;;;;;26.11;45.34;93082.22;2068230;69;20144;-80
2021/08/10 09:41:28;;;;;;;4.88;3.80;;;;;;;26.58;46.58;93083.34;2068142;69;20239;-80
2021/08/10 09:44:05;;;;;;;6.07;3.42;;;;;;;27.29;43.69;93074.38;2068262;69;20164;-73
2021/08/10 09:46:31;;;;;;;6.53;4.00;;;;;;;27.42;44.10;93080.94;2068180;69;20208;-75
2021/08/10 09:48:57;;;;;;;4.70;3.78;;;;;;;27.59;43.90;93067.25;2068078;69;20240;-76
2021/08/10 09:51:28;;;;;;;5.82;3.75;;;;;;;27.73;43.28;93073.09;2068142;69;20141;-80
2021/08/10 09:54:03;;;;;;;5.60;3.90;;;;;;;26.97;43.69;93066.25;2068061;69;20143;-77
2021/08/10 09:56:36;;;;;;;5.80;3.83;;;;;;;27.48;43.32;93066.50;2068095;69;20145;-79
2021/08/10 09:59:02;;;;;;;5.43;3.63;;;;;;;27.64;44.62;93076.66;2068157;69;20148;-77
2021/08/10 10:01:38;;;;;;;7.63;4.20;;;;;;;27.50;44.04;93068.69;2067930;69;20152;-75
2021/08/10 10:04:28;;;;;;;5.47;3.85;;;;;;;28.00;43.83;93070.25;2067954;69;20621;-76
2021/08/10 10:07:10;;;;;;;4.20;3.80;;;;;;;28.19;43.32;93071.72;2066661;69;20163;-81
2021/08/10 10:09:36;;;;;;;6.90;3.83;;;;;;;27.07;43.50;93065.56;2067762;69;20565;-76
2021/08/10 10:12:04;;;;;;;5.47;4.40;;;;;;;27.52;44.29;93054.22;2067898;69;20161;-77
2021/08/10 10:14:30;;;;;;;4.57;3.80;;;;;;;27.28;45.25;93052.69;2067815;69;20559;-79
2021/08/10 10:16:58;;;;;;;5.88;4.00;;;;;;;27.75;43.44;93055.03;2068668;69;20136;-79
2021/08/10 10:19:24;;;;;;;5.82;4.22;;;;;;;27.99;43.02;93042.75;2068465;69;20175;-77
2021/08/10 10:21:54;;;;;;;8.70;4.30;;;;;;;28.91;41.47;93039.81;2068862;69;20180;-79
2021/08/10 10:24:22;;;;;;;5.82;4.18;;;;;;;29.32;40.06;93028.81;2069070;69;20212;-82
2021/08/10 10:26:59;;;;;;;6.18;4.15;;;;;;;29.01;39.97;93034.03;2068776;69;20152;-79
2021/08/10 10:29:26;;;;;;;4.43;3.55;;;;;;;29.32;41.05;93031.72;2068762;69;20239;-80
2021/08/10 10:31:52;;;;;;;5.45;3.47;;;;;;;28.90;40.52;93030.38;2068814;69;20156;-79
2021/08/10 10:34:19;;;;;;;7.43;3.95;;;;;;;28.57;40.50;93015.28;2068705;69;20598;-80
2021/08/10 10:36:46;;;;;;;4.40;3.90;;;;;;;29.55;40.04;93015.69;2068791;69;20691;-80
2021/08/10 10:39:14;;;;;;;5.88;3.70;;;;;;;30.34;39.01;93017.34;2068916;69;20184;-80
2021/08/10 10:41:41;;;;;;;5.55;4.10;;;;;;;30.35;37.63;93012.25;2068742;69;20148;-76
2021/08/10 10:44:07;;;;;;;6.40;3.97;;;;;;;30.10;37.50;93011.69;2068733;69;20599;-78
2021/08/10 10:46:34;;;;;;;4.63;3.70;;;;;;;30.95;36.91;92997.88;2068791;69;20160;-81
2021/08/10 10:49:02;;;;;;;4.75;3.55;;;;;;;31.66;35.66;92988.31;2068595;69;20156;-79
2021/08/10 10:51:30;;;;;;;5.38;3.67;;;;;;;32.70;33.64;93006.34;2068680;69;20145;-81
2021/08/10 10:54:25;;;;;;;3.88;3.30;;;;;;;33.42;34.78;93002.81;2071368;69;20140;-83
2021/08/10 10:56:53;;;;;;;8.20;3.72;;;;;;;33.56;34.17;92999.63;2072094;69;20614;-81
2021/08/10 10:59:27;;;;;;;3.97;3.38;;;;;;;34.45;32.39;92996.13;2072005;69;20167;-78
2021/08/10 11:02:09;;;;;;;6.78;3.80;;;;;;;35.12;30.88;92998.06;2071967;69;20136;-77
2021/08/10 11:04:35;;;;;;;6.22;3.00;;;;;;;37.04;28.28;93000.28;2071955;69;20135;-74
2021/08/10 11:07:39;;;;;;;5.93;3.50;;;;;;;36.05;26.82;92990.31;2068570;69;20172;-79
2021/08/10 11:10:12;;;;;;;4.45;3.13;;;;;;;35.21;29.34;92983.22;2068626;69;20155;-77
2021/08/10 11:12:47;;;;;;;6.18;3.33;;;;;;;38.04;26.89;92993.72;2071967;69;20529;-78
2021/08/10 11:15:20;;;;;;;4.35;3.35;;;;;;;37.79;25.67;92985.09;2072072;69;20223;-76
2021/08/10 11:18:07;;;;;;;3.83;3.35;;;;;;;37.14;25.33;92976.47;2071927;69;20548;-76
2021/08/10 11:20:34;;;;;;;4.00;2.90;;;;;;;40.92;23.47;92996.50;2071967;69;20152;-81
2021/08/10 11:23:24;;;;;;;3.92;3.13;;;;;;;42.35;22.18;92983.81;2071944;69;20237;-77
2021/08/10 11:25:53;;;;;;;3.67;2.83;;;;;;;44.39;19.86;92997.63;2072117;69;20188;-80
2021/08/10 11:28:51;;;;;;;4.93;2.92;;;;;;;45.73;18.94;92990.97;2072082;69;20214;-78
2021/08/10 11:31:38;;;;;;;4.72;3.08;;;;;;;46.17;16.28;92992.38;2072080;69;20607;-78
2021/08/10 11:34:31;;;;;;;4.60;2.90;;;;;;;46.39;17.34;92984.13;2071884;69;20234;-78
2021/08/10 11:37:16;;;;;;;5.47;3.00;;;;;;;45.14;17.67;92968.25;2072034;69;20147;-78
2021/08/10 11:40:02;;;;;;;3.20;2.75;;;;;;;46.43;16.06;92971.91;2071941;69;20618;-79
2021/08/10 11:42:28;;;;;;;3.08;2.72;;;;;;;46.19;17.10;92974.41;2071894;69;20515;-81
2021/08/10 11:44:57;;;;;;;7.15;2.80;;;;;;;46.19;16.87;92962.50;2071894;69;20135;-79